Time;durP1;ratioP1;P1;durP2;ratioP2;P2;SDS_P1;SDS_P2;PMS_P1;PMS_P2;Temp;Humidity;BMP_temperature;BMP_pressure;BME280_temperature;BME280_humidity;BME280_pressure;Samples;Min_cycle;Max_cycle;Signal;HPM_P1;HPM_P2
2022/05/12 00:00:04;;;;;;;8.73;1.65;;;;;;;15.67;68.04;100791.91;5061897;28;20028;-77
2022/05/12 00:02:30;;;;;;;14.18;2.47;;;;;;;15.69;68.16;100798.84;5055885;28;20039;-77
2022/05/12 00:04:55;;;;;;;11.65;2.25;;;;;;;15.67;68.19;100801.13;5044779;28;20481;-77
2022/05/12 00:07:21;;;;;;;9.85;1.67;;;;;;;15.66;67.96;100796.66;5064445;28;20027;-77
2022/05/12 00:09:46;;;;;;;13.25;2.25;;;;;;;15.68;67.77;100799.13;5065048;28;20360;-77
2022/05/12 00:12:12;;;;;;;13.02;2.00;;;;;;;15.65;67.70;100792.19;5064831;28;20024;-77
2022/05/12 00:14:37;;;;;;;12.02;2.08;;;;;;;15.65;68.07;100795.00;5068441;28;20081;-78
2022/05/12 00:17:04;;;;;;;9.20;1.90;;;;;;;15.59;68.74;100791.50;5057939;27;20038;-77
2022/05/12 00:19:30;;;;;;;10.88;1.75;;;;;;;15.61;68.04;100794.81;5058130;28;20027;-77
2022/05/12 00:21:55;;;;;;;11.13;1.77;;;;;;;15.58;68.45;100800.25;5073230;28;20039;-77
2022/05/12 00:24:21;;;;;;;14.52;2.40;;;;;;;15.56;68.67;100803.34;5078608;27;20031;-77
2022/05/12 00:26:46;;;;;;;10.35;1.80;;;;;;;15.59;68.43;100807.50;5050998;28;20024;-77
2022/05/12 00:29:12;;;;;;;12.75;1.92;;;;;;;15.53;69.06;100803.19;5064699;28;20040;-77
2022/05/12 00:31:39;;;;;;;14.88;2.30;;;;;;;15.53;68.98;100797.59;5068525;27;20080;-77
2022/05/12 00:34:05;;;;;;;13.40;2.00;;;;;;;15.49;69.25;100803.00;5057704;28;20028;-77
2022/05/12 00:36:31;;;;;;;10.80;2.22;;;;;;;15.51;69.20;100802.66;5077904;28;20032;-77
2022/05/12 00:38:56;;;;;;;14.15;2.15;;;;;;;15.51;69.29;100805.47;5071481;28;20034;-77
2022/05/12 00:41:22;;;;;;;12.88;2.47;;;;;;;15.45;69.46;100798.34;5045512;28;20028;-77
2022/05/12 00:43:47;;;;;;;14.35;2.30;;;;;;;15.39;69.92;100806.88;5058653;28;20028;-77
2022/05/12 00:46:24;;;;;;;10.68;2.10;;;;;;;15.39;69.70;100809.69;5100057;28;20442;-77
2022/05/12 00:48:50;;;;;;;10.23;2.20;;;;;;;15.38;69.45;100807.22;5059978;28;20028;-77
2022/05/12 00:51:21;;;;;;;13.73;2.00;;;;;;;15.36;69.58;100809.50;5064381;28;20088;-77
2022/05/12 00:53:48;;;;;;;12.10;1.88;;;;;;;15.32;69.47;100814.91;5088909;28;20080;-77
2022/05/12 00:56:15;;;;;;;15.27;2.33;;;;;;;15.30;69.48;100820.00;5082754;28;20123;-77
2022/05/12 00:58:40;;;;;;;9.88;1.70;;;;;;;15.27;69.73;100819.81;5063061;28;20040;-77
2022/05/12 01:01:08;;;;;;;12.18;2.08;;;;;;;15.24;69.72;100823.22;5070773;28;20031;-77
2022/05/12 01:03:33;;;;;;;14.63;2.78;;;;;;;15.12;70.33;100823.78;5063935;28;20036;-77
2022/05/12 01:06:00;;;;;;;9.82;2.42;;;;;;;15.10;70.13;100824.13;5067423;28;20034;-77
2022/05/12 01:08:26;;;;;;;10.73;2.17;;;;;;;15.05;70.08;100826.22;5055627;28;20422;-77
2022/05/12 01:10:55;;;;;;;8.95;2.15;;;;;;;15.01;70.12;100836.38;5086114;28;20027;-77
2022/05/12 01:13:21;;;;;;;9.38;1.88;;;;;;;15.00;70.30;100838.34;5088356;28;20032;-77
2022/05/12 01:15:58;;;;;;;14.07;2.00;;;;;;;14.96;70.06;100829.78;5056527;28;20507;-77
2022/05/12 01:18:23;;;;;;;8.98;1.75;;;;;;;14.91;69.96;100838.28;5055328;28;20026;-77
2022/05/12 01:20:49;;;;;;;11.55;2.20;;;;;;;14.84;69.91;100832.28;5050961;28;20587;-77
2022/05/12 01:23:21;;;;;;;15.40;2.28;;;;;;;14.82;70.03;100828.13;5056368;28;20036;-77
2022/05/12 01:25:46;;;;;;;10.50;2.13;;;;;;;14.75;70.20;100825.78;5110957;28;20028;-77
2022/05/12 01:28:12;;;;;;;12.05;2.17;;;;;;;14.72;70.27;100834.81;5058278;28;20035;-77
2022/05/12 01:30:37;;;;;;;10.02;2.15;;;;;;;14.66;70.37;100833.28;5055467;28;20476;-77
2022/05/12 01:33:04;;;;;;;16.55;2.10;;;;;;;14.61;70.35;100833.38;5072984;28;20024;-77
2022/05/12 01:35:32;;;;;;;7.45;1.88;;;;;;;14.57;70.51;100827.59;5079436;28;20036;-77
2022/05/12 01:37:57;;;;;;;13.23;2.60;;;;;;;14.53;70.71;100821.78;5066096;27;20023;-77
2022/05/12 01:40:23;;;;;;;7.72;1.90;;;;;;;14.51;70.86;100820.41;5063675;28;20469;-77
2022/05/12 01:42:49;;;;;;;16.25;2.25;;;;;;;14.46;70.60;100826.97;5046909;28;20024;-77
2022/05/12 01:45:15;;;;;;;8.82;1.92;;;;;;;14.42;71.08;100825.09;5067244;27;20072;-77
2022/05/12 01:47:41;;;;;;;12.77;2.20;;;;;;;14.32;71.87;100817.78;5068478;28;20028;-77
2022/05/12 01:50:07;;;;;;;9.40;1.83;;;;;;;14.34;71.85;100817.44;5101514;28;20031;-77
2022/05/12 01:52:33;;;;;;;11.40;2.45;;;;;;;14.32;71.70;100820.56;5122094;27;20038;-77
2022/05/12 01:54:58;;;;;;;10.65;2.10;;;;;;;14.29;71.66;100813.63;5058792;28;20028;-77
2022/05/12 01:57:24;;;;;;;7.43;1.75;;;;;;;14.29;71.41;100822.00;5078668;28;20361;-77
2022/05/12 01:59:50;;;;;;;9.90;1.95;;;;;;;14.26;71.42;100821.78;5079783;28;20500;-77
2022/05/12 02:02:15;;;;;;;9.48;1.60;;;;;;;14.24;71.61;100838.88;5046424;28;20074;-77
2022/05/12 02:04:41;;;;;;;9.75;2.08;;;;;;;14.22;71.82;100831.94;5046082;28;20024;-77
2022/05/12 02:07:07;;;;;;;12.18;2.28;;;;;;;14.19;71.41;100838.16;5060641;28;20118;-77
2022/05/12 02:09:32;;;;;;;10.40;1.85;;;;;;;14.16;71.77;100838.78;5083123;28;20031;-77
2022/05/12 02:11:58;;;;;;;15.38;2.67;;;;;;;14.15;71.72;100842.69;5047191;28;20024;-77
2022/05/12 02:14:24;;;;;;;8.75;1.80;;;;;;;14.08;72.24;100838.34;5068627;28;20035;-77
2022/05/12 02:16:49;;;;;;;8.23;1.90;;;;;;;14.07;71.82;100838.66;5047109;28;20089;-77
2022/05/12 02:19:15;;;;;;;9.25;1.73;;;;;;;14.04;72.15;100842.91;5079350;28;20028;-77
2022/05/12 02:21:40;;;;;;;12.85;2.10;;;;;;;14.02;72.13;100835.97;5081124;28;20035;-77
2022/05/12 02:24:06;;;;;;;10.88;2.08;;;;;;;13.95;72.17;100833.56;5091169;28;20052;-77
2022/05/12 02:26:32;;;;;;;8.02;2.20;;;;;;;13.94;72.08;100843.09;5087347;28;20056;-77
2022/05/12 02:28:57;;;;;;;7.95;1.60;;;;;;;13.91;72.27;100848.47;5062467;28;20730;-77
2022/05/12 02:31:23;;;;;;;9.50;1.55;;;;;;;13.85;72.01;100842.97;5068906;28;20020;-77
2022/05/12 02:33:48;;;;;;;10.73;2.42;;;;;;;13.82;72.28;100838.03;5054694;27;20051;-77
2022/05/12 02:36:14;;;;;;;7.90;2.10;;;;;;;13.77;72.55;100842.88;5051945;28;20028;-77
2022/05/12 02:38:39;;;;;;;11.27;2.03;;;;;;;13.73;72.61;100844.59;5057316;28;20055;-77
2022/05/12 02:41:05;;;;;;;8.38;1.83;;;;;;;13.69;72.87;100851.94;5059269;28;20082;-77
2022/05/12 02:43:31;;;;;;;11.80;1.73;;;;;;;13.66;72.96;100842.22;5045862;28;20024;-77
2022/05/12 02:46:03;;;;;;;10.02;2.25;;;;;;;13.64;72.91;100847.28;5040573;28;20087;-77
2022/05/12 02:48:30;;;;;;;13.63;2.38;;;;;;;13.61;73.00;100845.94;5078917;28;20035;-77
2022/05/12 02:50:56;;;;;;;10.15;2.10;;;;;;;13.55;73.41;100849.13;5102231;28;20053;-77
2022/05/12 02:53:21;;;;;;;7.47;1.67;;;;;;;13.54;73.14;100856.66;5091153;28;20092;-78
2022/05/12 02:55:47;;;;;;;9.90;2.00;;;;;;;13.50;73.26;100861.19;5087479;28;20039;-77
2022/05/12 02:58:13;;;;;;;9.82;2.10;;;;;;;13.47;73.21;100858.19;5090927;28;20052;-77
2022/05/12 03:00:38;;;;;;;7.53;1.77;;;;;;;13.45;73.43;100864.06;5097755;28;20036;-78
2022/05/12 03:03:05;;;;;;;10.13;2.03;;;;;;;13.41;73.72;100868.59;5066031;28;20052;-78
2022/05/12 03:05:31;;;;;;;6.32;1.63;;;;;;;13.39;73.37;100865.28;5052325;28;20410;-77
2022/05/12 03:07:57;;;;;;;10.80;1.70;;;;;;;13.37;73.69;100873.13;5043198;28;20051;-78
2022/05/12 03:10:23;;;;;;;9.13;1.85;;;;;;;13.35;73.85;100873.44;5046886;28;20026;-77
2022/05/12 03:12:49;;;;;;;8.05;1.67;;;;;;;13.32;73.72;100868.47;5096668;28;20028;-77
2022/05/12 03:15:15;;;;;;;6.90;2.22;;;;;;;13.32;73.60;100878.81;5080246;28;20388;-77
2022/05/12 03:17:42;;;;;;;7.10;1.60;;;;;;;13.30;73.58;100872.69;5044737;28;20020;-77
2022/05/12 03:20:11;;;;;;;9.45;1.45;;;;;;;13.30;73.82;100879.09;5047612;28;20038;-77
2022/05/12 03:22:37;;;;;;;8.30;2.00;;;;;;;13.28;73.83;100874.97;5045489;28;20034;-77
2022/05/12 03:25:03;;;;;;;9.10;1.45;;;;;;;13.25;73.70;100875.53;5064179;28;20536;-77
2022/05/12 03:27:29;;;;;;;7.35;1.67;;;;;;;13.23;73.60;100872.22;5056163;28;20028;-77
2022/05/12 03:29:55;;;;;;;7.57;1.75;;;;;;;13.21;73.60;100880.91;5071116;28;20091;-77
2022/05/12 03:32:20;;;;;;;8.00;1.80;;;;;;;13.19;73.93;100872.81;5078055;28;20612;-77
2022/05/12 03:34:46;;;;;;;9.73;1.80;;;;;;;13.15;73.63;100880.16;5031606;28;20023;-77
2022/05/12 03:37:12;;;;;;;7.18;1.50;;;;;;;13.15;73.96;100887.69;5078364;28;20043;-77
2022/05/12 03:39:39;;;;;;;9.15;2.10;;;;;;;13.11;73.91;100884.66;5091305;28;20036;-77
2022/05/12 03:42:06;;;;;;;7.15;1.52;;;;;;;13.08;73.90;100881.66;5064970;28;20043;-77
2022/05/12 03:44:47;;;;;;;7.43;1.67;;;;;;;13.05;73.98;100894.22;5065763;28;20110;-77
2022/05/12 03:47:19;;;;;;;7.20;1.65;;;;;;;13.02;73.93;100889.25;5049796;28;20068;-77
2022/05/12 03:49:57;;;;;;;5.83;1.67;;;;;;;13.00;74.03;100887.91;5050547;28;20051;-77
2022/05/12 03:52:23;;;;;;;9.65;2.17;;;;;;;12.96;74.16;100885.72;5056383;28;20767;-77
2022/05/12 03:54:49;;;;;;;7.63;1.75;;;;;;;12.91;74.35;100883.00;5051660;28;20059;-77
2022/05/12 03:57:14;;;;;;;7.53;1.55;;;;;;;12.89;74.54;100884.44;5064344;28;20032;-77
2022/05/12 03:59:40;;;;;;;8.30;1.85;;;;;;;12.86;74.64;100885.84;5061945;28;20048;-77
2022/05/12 04:02:06;;;;;;;6.30;1.50;;;;;;;12.83;74.79;100882.84;5053878;28;20040;-77
2022/05/12 04:04:32;;;;;;;8.05;1.42;;;;;;;12.81;74.68;100890.69;5065317;28;20027;-77
2022/05/12 04:06:58;;;;;;;8.25;1.90;;;;;;;12.78;74.76;100882.91;5044470;28;20032;-77
2022/05/12 04:09:25;;;;;;;7.82;1.70;;;;;;;12.74;74.45;100882.69;5052793;28;20038;-77
2022/05/12 04:11:50;;;;;;;7.05;1.98;;;;;;;12.70;74.59;100881.63;5065773;28;20028;-77
2022/05/12 04:14:16;;;;;;;8.38;1.67;;;;;;;12.69;74.40;100886.38;5065414;28;20388;-77
2022/05/12 04:16:41;;;;;;;9.57;2.10;;;;;;;12.64;74.62;100883.66;5048907;28;20036;-77
2022/05/12 04:19:07;;;;;;;9.32;2.13;;;;;;;12.59;74.52;100883.75;5068950;28;20028;-77
2022/05/12 04:21:37;;;;;;;9.88;1.88;;;;;;;12.55;74.81;100877.09;5059394;28;20082;-77
2022/05/12 04:24:05;;;;;;;8.27;1.80;;;;;;;12.52;75.10;100878.50;5081589;28;20420;-77
2022/05/12 04:26:32;;;;;;;6.13;1.60;;;;;;;12.51;74.90;100878.81;5082051;27;20020;-77
2022/05/12 04:28:57;;;;;;;7.30;1.40;;;;;;;12.47;75.11;100875.78;5048154;28;20081;-77
2022/05/12 04:31:23;;;;;;;9.52;1.98;;;;;;;12.44;75.49;100875.56;5033242;28;20119;-77
2022/05/12 04:36:32;;;;;;;8.38;1.63;;;;;;;12.38;75.35;100879.53;5071869;28;20028;-77
2022/05/12 04:38:59;;;;;;;9.38;1.80;;;;;;;12.36;75.66;100871.47;5108146;28;20039;-77
2022/05/12 04:41:25;;;;;;;6.95;1.77;;;;;;;12.32;75.37;100875.16;5099123;28;20028;-77
2022/05/12 04:43:51;;;;;;;7.60;1.60;;;;;;;12.29;75.60;100874.63;5079640;28;20038;-77
2022/05/12 04:46:17;;;;;;;9.10;1.70;;;;;;;12.29;75.71;100884.94;5057899;28;20032;-77
2022/05/12 04:48:43;;;;;;;6.95;1.75;;;;;;;12.24;75.75;100880.25;5091776;28;20035;-77
2022/05/12 04:51:09;;;;;;;9.40;2.20;;;;;;;12.25;76.08;100881.06;5085257;28;20159;-77
2022/05/12 04:53:35;;;;;;;8.77;1.88;;;;;;;12.24;76.19;100891.38;5080840;28;20433;-77
2022/05/12 04:56:00;;;;;;;8.50;2.00;;;;;;;12.24;76.07;100896.13;5082149;28;20035;-77
2022/05/12 04:58:26;;;;;;;8.70;1.70;;;;;;;12.25;76.16;100893.03;5070451;28;20503;-77
2022/05/12 05:00:51;;;;;;;7.78;1.90;;;;;;;12.26;76.38;100893.88;5075908;28;20032;-77
2022/05/12 05:03:18;;;;;;;11.70;1.83;;;;;;;12.27;75.98;100895.53;5070779;28;20058;-77
2022/05/12 05:05:44;;;;;;;7.95;2.08;;;;;;;12.29;76.01;100899.69;5034304;28;20019;-77
2022/05/12 05:08:12;;;;;;;11.52;1.98;;;;;;;12.34;76.32;100907.16;5080437;28;20027;-77
2022/05/12 05:10:38;;;;;;;9.02;2.22;;;;;;;12.40;75.96;100908.75;5044652;28;20472;-77
2022/05/12 05:13:03;;;;;;;10.32;2.10;;;;;;;12.45;76.05;100905.91;5109600;28;20095;-77
2022/05/12 05:15:29;;;;;;;7.55;1.65;;;;;;;12.51;76.07;100912.25;5047121;28;20032;-77
2022/05/12 05:17:54;;;;;;;6.90;2.17;;;;;;;12.58;76.01;100918.28;5054713;28;20039;-77
2022/05/12 05:20:23;;;;;;;8.73;2.20;;;;;;;12.65;75.42;100913.19;5079309;28;20476;-77
2022/05/12 05:22:48;;;;;;;8.52;1.92;;;;;;;12.73;75.46;100914.47;5071677;28;20032;-77
2022/05/12 05:25:14;;;;;;;7.57;1.95;;;;;;;12.79;75.43;100918.88;5045409;28;20031;-73
2022/05/12 05:27:40;;;;;;;7.50;1.90;;;;;;;12.85;76.04;100916.84;5092162;28;20028;-73
2022/05/12 05:30:06;;;;;;;8.85;2.42;;;;;;;12.89;75.92;100924.28;5100156;28;20042;-73
2022/05/12 05:32:32;;;;;;;8.50;1.90;;;;;;;12.96;76.43;100924.75;5063218;28;20081;-73
2022/05/12 05:34:58;;;;;;;9.10;2.50;;;;;;;13.01;76.42;100932.22;5090896;28;20035;-73
2022/05/12 05:37:23;;;;;;;11.05;2.05;;;;;;;13.05;76.49;100930.47;5072468;28;20097;-73
2022/05/12 05:39:49;;;;;;;10.32;2.42;;;;;;;13.09;76.63;100934.34;5076706;28;20039;-73
2022/05/12 05:42:15;;;;;;;9.65;2.55;;;;;;;13.13;76.97;100940.97;5072080;28;20035;-71
2022/05/12 05:45:10;;;;;;;12.85;2.13;;;;;;;13.19;76.47;100931.38;5070066;28;20057;-78
2022/05/12 05:47:50;;;;;;;10.75;2.10;;;;;;;13.28;76.45;100936.31;5056863;28;20023;-78
2022/05/12 05:50:24;;;;;;;8.52;2.10;;;;;;;13.36;76.48;100939.25;5056149;28;20076;-79
2022/05/12 05:56:18;;;;;;;;;;;;;;;;;;;;;
2022/05/12 05:58:33;;;;;;;14.40;2.92;;;;;;;13.51;78.01;100946.56;5078797;28;20106;-78
2022/05/12 06:01:04;;;;;;;11.90;2.30;;;;;;;13.57;77.72;100950.94;5062524;28;20123;-79
2022/05/12 06:03:36;;;;;;;15.15;2.47;;;;;;;13.71;76.92;100955.75;5078499;28;20392;-79
2022/05/12 06:06:01;;;;;;;13.82;2.63;;;;;;;13.82;76.60;100962.81;5050185;28;20100;-79
2022/05/12 06:08:27;;;;;;;12.88;2.75;;;;;;;13.92;76.31;100962.63;5064078;28;20126;-76
2022/05/12 06:10:52;;;;;;;16.63;2.90;;;;;;;13.99;76.15;100963.06;5080505;28;20039;-78
2022/05/12 06:13:18;;;;;;;16.00;2.80;;;;;;;14.08;76.47;100966.00;5098971;28;20032;-75
2022/05/12 06:15:44;;;;;;;16.50;2.92;;;;;;;14.19;76.09;100970.25;5085616;28;20518;-79
2022/05/12 06:18:12;;;;;;;16.67;2.67;;;;;;;14.32;75.42;100971.44;5075104;27;20032;-78
2022/05/12 06:20:38;;;;;;;16.00;2.70;;;;;;;14.41;74.87;100966.78;5112570;27;20030;-80
2022/05/12 06:23:03;;;;;;;15.20;2.45;;;;;;;14.50;74.47;100970.50;5075706;28;20036;-80
2022/05/12 06:25:29;;;;;;;19.40;2.97;;;;;;;14.64;73.96;100969.72;5076546;28;20024;-80
2022/05/12 06:27:55;;;;;;;13.05;2.95;;;;;;;14.78;73.51;100975.31;5079209;28;20166;-79
2022/05/12 06:30:23;;;;;;;14.02;2.63;;;;;;;14.88;72.82;100978.72;5091643;28;20024;-81
2022/05/12 06:32:51;;;;;;;16.13;2.90;;;;;;;14.90;72.61;100965.25;5099423;28;20035;-77
2022/05/12 06:35:16;;;;;;;20.67;3.80;;;;;;;15.03;72.46;100973.94;5103544;28;20027;-77
2022/05/12 06:37:42;;;;;;;16.95;3.30;;;;;;;15.08;72.04;100985.03;5054592;28;20036;-76
2022/05/12 06:40:09;;;;;;;17.15;2.63;;;;;;;15.20;71.46;100976.91;5067135;28;20561;-75
2022/05/12 06:42:35;;;;;;;10.18;1.90;;;;;;;15.25;71.22;100982.41;5081128;28;20028;-75
2022/05/12 06:45:01;;;;;;;15.48;2.67;;;;;;;15.32;71.19;100981.97;5092130;28;20460;-74
2022/05/12 06:47:27;;;;;;;13.85;2.95;;;;;;;15.37;70.89;100991.06;5096753;28;20110;-74
2022/05/12 06:49:52;;;;;;;15.02;2.60;;;;;;;15.52;70.21;100995.50;5078564;28;20028;-77
2022/05/12 06:52:21;;;;;;;10.00;2.20;;;;;;;15.51;70.58;100990.22;5061810;28;20036;-80
2022/05/12 06:54:49;;;;;;;17.95;3.28;;;;;;;15.52;71.15;100997.47;5066502;28;20383;-78
2022/05/12 06:57:21;;;;;;;11.50;2.40;;;;;;;15.62;70.06;101005.63;5050087;28;20070;-74
2022/05/12 06:59:46;;;;;;;14.35;2.50;;;;;;;15.62;70.94;100998.03;5078847;28;20450;-74
2022/05/12 07:02:12;;;;;;;19.27;3.50;;;;;;;15.72;70.88;101005.41;5060998;28;20048;-74
2022/05/12 07:04:37;;;;;;;12.43;2.90;;;;;;;15.78;70.00;101006.94;5066429;28;20035;-74
2022/05/12 07:07:05;;;;;;;14.00;3.03;;;;;;;15.89;71.09;101004.72;5059666;28;20023;-74
2022/05/12 07:09:31;;;;;;;22.77;3.20;;;;;;;15.92;71.59;101020.06;5091057;28;20691;-74
2022/05/12 07:11:57;;;;;;;16.15;2.53;;;;;;;16.07;70.69;101014.06;5074952;28;20024;-74
2022/05/12 07:14:23;;;;;;;18.65;2.65;;;;;;;16.15;70.36;101010.50;5096030;28;20551;-74
2022/05/12 07:16:48;;;;;;;22.42;3.40;;;;;;;16.26;70.28;101005.47;5083878;28;20040;-77
2022/05/12 07:19:15;;;;;;;18.67;3.25;;;;;;;16.37;69.79;101006.03;5056782;28;20040;-76
2022/05/12 07:27:15;;;;;;;15.50;2.97;;;;;;;16.92;67.86;101011.25;5087433;28;20476;-77
2022/05/12 07:29:41;;;;;;;14.52;2.75;;;;;;;17.05;67.59;101010.31;5073942;28;20017;-76
2022/05/12 07:32:07;;;;;;;15.95;2.40;;;;;;;17.31;66.95;101003.94;5096670;28;20042;-77
2022/05/12 07:34:33;;;;;;;14.00;2.75;;;;;;;17.41;66.01;101012.03;5102994;28;20475;-71
2022/05/12 07:36:58;;;;;;;15.38;2.45;;;;;;;17.56;65.18;101011.56;5122954;28;20059;-77
2022/05/12 07:39:27;;;;;;;12.27;2.08;;;;;;;17.79;64.02;101014.25;5079831;28;20039;-74
2022/05/12 07:41:53;;;;;;;15.88;2.45;;;;;;;17.93;63.24;101022.50;5078373;28;20063;-74
2022/05/12 07:44:19;;;;;;;16.92;2.92;;;;;;;18.13;62.53;101020.97;5109077;28;20112;-76
2022/05/12 07:47:36;;;;;;;;;;;;;;;;;;;;;
2022/05/12 07:50:14;;;;;;;13.57;2.50;;;;;;;18.47;60.49;101029.38;5066272;28;20102;-81
2022/05/12 07:52:46;;;;;;;15.85;2.20;;;;;;;18.59;59.55;101022.22;5065781;28;20066;-74
2022/05/12 07:55:11;;;;;;;17.30;2.20;;;;;;;18.64;58.74;101022.03;5080551;28;20031;-77
2022/05/12 07:57:37;;;;;;;17.27;2.22;;;;;;;18.72;59.04;101032.41;5093252;28;20086;-76
2022/05/12 08:00:05;;;;;;;14.48;2.40;;;;;;;18.86;58.67;101020.97;5095980;28;20471;-75
2022/05/12 08:02:31;;;;;;;7.82;1.95;;;;;;;19.00;58.49;101026.38;5102260;28;20551;-76
2022/05/12 08:04:57;;;;;;;12.15;2.10;;;;;;;18.96;58.51;101018.59;5088409;28;20101;-75
2022/05/12 08:07:22;;;;;;;12.02;2.58;;;;;;;18.85;57.22;101017.31;5057858;28;20051;-75
2022/05/12 08:09:48;;;;;;;13.45;2.63;;;;;;;18.83;57.06;101028.09;5095955;28;20397;-76
2022/05/12 08:12:15;;;;;;;11.88;2.15;;;;;;;18.88;57.70;101032.72;5106803;28;20503;-76
2022/05/12 08:14:41;;;;;;;10.95;2.08;;;;;;;18.87;57.02;101031.91;5106208;28;20515;-76
2022/05/12 08:17:06;;;;;;;10.50;1.58;;;;;;;18.95;57.19;101036.66;5108931;28;20103;-75
2022/05/12 08:19:34;;;;;;;12.73;2.45;;;;;;;18.97;56.97;101039.97;5095833;28;20028;-76
2022/05/12 08:22:00;;;;;;;9.27;2.08;;;;;;;19.01;57.58;101031.66;5081807;28;20019;-76
2022/05/12 08:24:25;;;;;;;10.95;1.70;;;;;;;19.02;57.67;101035.31;5087965;28;20039;-76
2022/05/12 08:26:51;;;;;;;8.15;1.77;;;;;;;19.03;57.87;101036.94;5078741;28;20436;-75
2022/05/12 08:29:25;;;;;;;15.00;2.40;;;;;;;19.07;57.77;101037.94;5106769;28;20032;-79
2022/05/12 08:31:51;;;;;;;11.43;1.65;;;;;;;19.13;57.14;101040.19;5098257;28;20567;-75
2022/05/12 08:34:17;;;;;;;13.15;1.92;;;;;;;19.18;56.16;101040.03;5090119;28;20067;-77
2022/05/12 08:36:42;;;;;;;15.50;2.05;;;;;;;19.24;54.46;101032.19;5081220;28;20492;-75
2022/05/12 08:39:08;;;;;;;11.48;1.77;;;;;;;19.39;53.65;101045.72;5081130;28;20172;-75
2022/05/12 08:41:48;;;;;;;10.82;2.10;;;;;;;19.32;54.05;101048.22;5077918;28;20476;-75
2022/05/12 08:48:41;;;;;;;11.02;1.77;;;;;;;19.43;52.31;101055.09;5077760;28;20027;-80
2022/05/12 08:55:43;;;;;;;13.77;1.90;;;;;;;19.42;51.51;101061.09;4991572;28;20038;-80
2022/05/12 09:02:51;;;;;;;7.85;1.63;;;;;;;19.55;51.80;101054.38;4903898;29;20040;-81
2022/05/12 09:06:12;;;;;;;7.63;1.77;;;;;;;19.67;51.13;101056.50;4907243;29;20043;-80
2022/05/12 09:13:24;;;;;;;11.18;1.85;;;;;;;20.18;49.53;101045.94;4984173;28;20061;-78
2022/05/12 09:16:14;;;;;;;6.07;1.35;;;;;;;20.45;48.05;101038.06;4928327;29;20447;-79
2022/05/12 09:18:43;;;;;;;8.35;1.40;;;;;;;20.64;47.50;101035.50;4936783;29;20044;-75
2022/05/12 09:21:13;;;;;;;8.32;1.83;;;;;;;20.94;46.95;101029.69;4979633;28;20096;-75
2022/05/12 09:23:39;;;;;;;12.35;1.83;;;;;;;21.14;47.78;101028.72;4961893;28;20055;-75
2022/05/12 09:26:49;;;;;;;7.85;1.58;;;;;;;21.36;47.66;101023.78;4976808;28;20073;-75
2022/05/12 09:29:18;;;;;;;9.05;1.45;;;;;;;21.37;45.35;101031.94;4976814;28;20030;-76
2022/05/12 09:36:14;;;;;;;11.32;1.90;;;;;;;21.58;46.61;101030.97;4983263;28;20038;-79
2022/05/12 09:39:13;;;;;;;14.05;2.22;;;;;;;21.46;45.66;101034.63;5005813;28;20036;-78
2022/05/12 09:45:41;;;;;;;11.50;1.80;;;;;;;21.25;44.86;101048.84;5007325;28;20042;-80
2022/05/12 09:49:14;;;;;;;;;;;;;;;;;;;;;
2022/05/12 09:55:42;;;;;;;5.85;1.35;;;;;;;21.53;45.26;101040.50;4926974;29;20178;-78
2022/05/12 09:58:13;;;;;;;6.47;1.33;;;;;;;21.57;46.07;101046.28;4909097;29;20643;-76
2022/05/12 10:00:41;;;;;;;13.63;1.85;;;;;;;21.55;45.09;101043.81;4948664;29;20539;-76
2022/05/12 10:09:08;;;;;;;9.57;1.50;;;;;;;21.30;44.61;101065.56;5017818;28;20038;-76
2022/05/12 10:11:39;;;;;;;8.90;1.35;;;;;;;21.27;44.51;101062.63;5034353;28;20120;-77
2022/05/12 10:14:04;;;;;;;9.88;1.75;;;;;;;21.18;44.92;101052.28;5017157;28;20440;-76
2022/05/12 10:16:30;;;;;;;9.63;1.95;;;;;;;21.01;45.26;101055.34;5036487;28;20069;-76
2022/05/12 10:18:58;;;;;;;6.85;1.15;;;;;;;20.97;45.12;101052.38;5037906;28;20155;-77
2022/05/12 10:21:37;;;;;;;7.70;1.48;;;;;;;20.94;44.93;101046.63;5033359;28;20040;-76
2022/05/12 10:24:31;;;;;;;7.32;1.40;;;;;;;20.95;45.31;101048.28;5062586;28;20063;-76
2022/05/12 10:27:07;;;;;;;6.88;1.20;;;;;;;21.00;44.41;101045.22;5095326;28;20028;-76
2022/05/12 10:30:34;;;;;;;6.30;1.45;;;;;;;21.02;43.41;101040.03;5097356;28;20039;-76
2022/05/12 10:33:08;;;;;;;6.93;1.23;;;;;;;21.14;42.79;101040.03;5016059;28;20488;-76
2022/05/12 10:35:47;;;;;;;5.80;1.10;;;;;;;21.27;44.60;101034.41;5014875;28;20038;-76
2022/05/12 10:38:27;;;;;;;8.43;1.60;;;;;;;21.42;42.45;101030.88;5016367;28;20056;-76
2022/05/12 10:41:04;;;;;;;6.78;0.98;;;;;;;21.70;42.90;101032.94;5034472;28;20036;-76
2022/05/12 10:43:32;;;;;;;6.72;1.45;;;;;;;21.88;42.86;101031.47;5033699;28;20117;-76
2022/05/12 10:46:12;;;;;;;7.63;1.42;;;;;;;22.05;41.56;101034.00;5038807;28;20037;-76
2022/05/12 10:48:55;;;;;;;6.32;1.27;;;;;;;22.32;41.71;101020.25;5016450;28;20502;-77
2022/05/12 10:51:39;;;;;;;5.93;1.35;;;;;;;22.40;41.26;101026.91;5033996;28;20042;-76
2022/05/12 10:54:14;;;;;;;6.63;1.20;;;;;;;22.49;42.28;101033.25;5015030;28;20596;-77
2022/05/12 10:56:58;;;;;;;6.93;1.30;;;;;;;22.43;41.81;101027.03;5017435;28;20079;-76
2022/05/12 10:59:37;;;;;;;9.65;1.55;;;;;;;22.46;40.52;101031.97;5014742;28;20128;-76
2022/05/12 11:02:31;;;;;;;10.35;1.23;;;;;;;22.41;40.58;101018.06;5016070;28;20061;-80
2022/05/12 11:05:24;;;;;;;6.97;1.15;;;;;;;22.32;40.15;101016.59;5068761;28;20085;-75
2022/05/12 11:08:17;;;;;;;9.55;1.33;;;;;;;22.33;41.53;101021.88;5051103;28;20035;-77
2022/05/12 11:11:34;;;;;;;6.53;1.20;;;;;;;22.23;40.41;101016.75;4974354;28;20053;-76
2022/05/12 11:14:30;;;;;;;7.03;1.20;;;;;;;22.06;38.88;101018.69;4959102;28;20039;-76
2022/05/12 11:17:48;;;;;;;7.82;1.20;;;;;;;22.12;40.44;101022.09;4957011;28;20034;-75
2022/05/12 11:20:24;;;;;;;6.65;1.45;;;;;;;22.02;41.78;101017.75;4961809;28;20074;-75
2022/05/12 11:23:03;;;;;;;6.38;0.98;;;;;;;21.96;41.80;101016.38;4974751;28;20574;-79
2022/05/12 11:25:37;;;;;;;7.03;1.10;;;;;;;22.04;41.59;101009.75;4962033;28;20046;-77
2022/05/12 11:31:28;;;;;;;5.43;1.27;;;;;;;22.33;41.10;101004.09;4947691;29;20039;-76
2022/05/12 11:33:57;;;;;;;9.20;1.50;;;;;;;22.45;41.08;101006.84;4957087;28;20067;-77
2022/05/12 11:36:39;;;;;;;8.32;1.08;;;;;;;22.66;41.10;101009.44;4959052;28;20049;-77
2022/05/12 11:39:31;;;;;;;5.72;1.15;;;;;;;22.70;39.72;101004.66;4913364;29;20038;-78
2022/05/12 11:42:12;;;;;;;9.98;1.40;;;;;;;23.03;40.03;101003.50;4964112;28;20042;-77
2022/05/12 11:45:01;;;;;;;7.55;1.15;;;;;;;23.21;39.37;101007.59;4958397;28;20093;-77
2022/05/12 12:19:46;;;;;;;7.43;1.20;;;;;;;23.64;38.02;100986.72;4973465;28;20431;-81
2022/05/12 12:22:37;;;;;;;8.18;1.27;;;;;;;23.81;38.06;100981.84;4945831;28;20142;-71
2022/05/12 12:25:12;;;;;;;7.90;0.95;;;;;;;23.93;37.16;100986.53;4980486;28;20100;-75
2022/05/12 12:27:52;;;;;;;7.43;1.30;;;;;;;23.98;37.53;100986.22;4962197;28;20033;-75
2022/05/12 12:38:11;;;;;;;6.43;0.95;;;;;;;24.44;37.89;100983.50;4910704;29;20131;-76
2022/05/12 12:40:51;;;;;;;6.13;1.15;;;;;;;24.64;38.24;100982.25;4958881;28;20043;-76
2022/05/12 12:43:37;;;;;;;4.80;1.08;;;;;;;24.77;36.68;100979.19;4959882;28;20030;-75
2022/05/12 12:46:26;;;;;;;6.57;1.33;;;;;;;24.80;37.57;100972.78;4925669;29;20090;-76
2022/05/12 12:49:33;;;;;;;8.02;1.38;;;;;;;24.68;35.92;100974.63;4922859;29;20091;-75
2022/05/12 12:52:58;;;;;;;4.47;1.17;;;;;;;24.87;35.38;100970.06;4947085;28;20034;-79
2022/05/12 13:23:23;;;;;;;6.63;1.00;;;;;;;24.82;36.12;100956.97;4898423;29;20048;-81
2022/05/12 13:25:49;;;;;;;7.60;1.08;;;;;;;24.96;36.49;100962.06;4881088;29;20040;-76
2022/05/12 13:28:20;;;;;;;5.40;1.15;;;;;;;25.09;36.26;100954.16;4884317;29;20056;-76
2022/05/12 13:30:48;;;;;;;6.88;1.27;;;;;;;25.18;35.96;100944.22;4936960;29;20110;-76
2022/05/12 13:33:23;;;;;;;8.65;1.27;;;;;;;25.07;35.50;100937.47;4923385;29;20076;-76
2022/05/12 13:35:55;;;;;;;5.70;1.10;;;;;;;25.15;35.41;100950.63;4943151;29;20038;-75
2022/05/12 13:38:20;;;;;;;6.35;1.02;;;;;;;25.02;35.07;100949.19;4923660;29;20044;-76